createdAt,value
2018-02-04T00:00:00.582Z,968.39
2018-02-04T00:01:00.530Z,968.40
2018-02-04T00:02:00.528Z,968.41
2018-02-04T00:03:00.526Z,968.38
2018-02-04T00:04:00.558Z,968.37
2018-02-04T00:05:00.550Z,968.43
2018-02-04T00:06:00.501Z,968.34
2018-02-04T00:07:00.497Z,968.38
2018-02-04T00:08:00.492Z,968.38
2018-02-04T00:09:00.485Z,968.36
2018-02-04T00:10:00.539Z,968.35
2018-02-04T00:11:00.472Z,968.37
2018-02-04T00:12:00.467Z,968.33
2018-02-04T00:13:00.459Z,968.36
2018-02-04T00:14:00.454Z,968.40
2018-02-04T00:15:00.500Z,968.43
2018-02-04T00:16:00.445Z,968.42
2018-02-04T00:17:00.438Z,968.38
2018-02-04T00:18:00.429Z,968.39
2018-02-04T00:19:00.472Z,968.42
2018-02-04T00:20:00.418Z,968.45
2018-02-04T00:21:00.409Z,968.50
2018-02-04T00:22:00.467Z,968.46
2018-02-04T00:23:00.400Z,968.49
2018-02-04T00:24:00.446Z,968.44
2018-02-04T00:25:00.430Z,968.45
2018-02-04T00:26:00.381Z,968.46
2018-02-04T00:27:00.380Z,968.45
2018-02-04T00:28:00.375Z,968.41
2018-02-04T00:29:00.373Z,968.42
2018-02-04T00:30:00.412Z,968.41
2018-02-04T00:31:00.356Z,968.40
2018-02-04T00:32:00.351Z,968.42
2018-02-04T00:33:00.396Z,968.42
2018-02-04T00:34:00.344Z,968.36
2018-02-04T00:35:00.379Z,968.38
2018-02-04T00:36:00.369Z,968.41
2018-02-04T00:37:00.337Z,968.40
2018-02-04T00:38:00.323Z,968.39
2018-02-04T00:39:00.318Z,968.36
2018-02-04T00:40:00.306Z,968.34
2018-02-04T00:41:00.353Z,968.38
2018-02-04T00:42:00.299Z,968.38
2018-02-04T00:43:00.288Z,968.39
2018-02-04T00:44:00.276Z,968.45
2018-02-04T00:45:00.315Z,968.47
2018-02-04T00:46:00.270Z,968.40
2018-02-04T00:47:00.257Z,968.46
2018-02-04T00:48:00.259Z,968.43
2018-02-04T00:49:00.245Z,968.43
2018-02-04T00:50:00.277Z,968.45
2018-02-04T00:51:00.235Z,968.43
2018-02-04T00:52:00.237Z,968.42
2018-02-04T00:53:00.227Z,968.53
2018-02-04T00:54:00.214Z,968.50
2018-02-04T00:55:00.260Z,968.55
2018-02-04T00:56:01.119Z,968.59
2018-02-04T00:57:00.199Z,968.54
2018-02-04T00:58:00.197Z,968.60
2018-02-04T00:59:00.189Z,968.62
2018-02-04T01:00:00.231Z,968.58
2018-02-04T01:01:00.978Z,968.57
2018-02-04T01:02:00.176Z,968.59
2018-02-04T01:03:00.169Z,968.58
2018-02-04T01:04:00.156Z,968.57
2018-02-04T01:05:00.189Z,968.57
2018-02-04T01:06:00.183Z,968.57
2018-02-04T01:07:00.140Z,968.57
2018-02-04T01:08:00.137Z,968.58
2018-02-04T01:09:00.127Z,968.61
2018-02-04T01:10:00.130Z,968.59
2018-02-04T01:11:00.158Z,968.64
2018-02-04T01:12:00.114Z,968.69
2018-02-04T01:13:00.100Z,968.72
2018-02-04T01:14:00.098Z,968.73
2018-02-04T01:15:00.094Z,968.73
2018-02-04T01:16:00.135Z,968.74
2018-02-04T01:17:00.084Z,968.76
2018-02-04T01:18:00.086Z,968.76
2018-02-04T01:19:00.114Z,968.84
2018-02-04T01:20:00.063Z,968.78
2018-02-04T01:21:00.054Z,968.79
2018-02-04T01:22:00.102Z,968.76
2018-02-04T01:23:00.048Z,968.79
2018-02-04T01:24:00.043Z,968.82
2018-02-04T01:25:00.035Z,968.85
2018-02-04T01:26:00.037Z,968.83
2018-02-04T01:27:00.062Z,968.83
2018-02-04T01:28:00.019Z,968.86
2018-02-04T01:29:00.021Z,968.84
2018-02-04T01:30:00.003Z,968.86
2018-02-04T01:31:00.000Z,968.85
2018-02-04T01:32:00.044Z,968.86
2018-02-04T01:32:59.990Z,968.86
2018-02-04T01:33:59.983Z,968.89
2018-02-04T01:34:59.971Z,968.87
2018-02-04T01:35:59.974Z,968.87
2018-02-04T01:36:59.996Z,968.88
2018-02-04T01:37:59.952Z,968.86
2018-02-04T01:38:59.951Z,968.86
2018-02-04T01:39:59.942Z,968.87
2018-02-04T01:40:59.943Z,968.85
2018-02-04T01:41:59.977Z,968.86
2018-02-04T01:42:59.923Z,968.88
2018-02-04T01:43:59.915Z,968.85
2018-02-04T01:44:59.959Z,968.84
2018-02-04T01:45:59.906Z,968.89
2018-02-04T01:46:59.906Z,968.90
2018-02-04T01:47:59.999Z,968.89
2018-02-04T01:48:59.890Z,968.92
2018-02-04T01:49:59.925Z,968.91
2018-02-04T01:50:59.875Z,968.93
2018-02-04T01:51:59.869Z,968.94
2018-02-04T01:52:59.868Z,968.87
2018-02-04T01:53:59.901Z,968.90
2018-02-04T01:54:59.850Z,968.87
2018-02-04T01:55:59.848Z,968.88
2018-02-04T01:56:59.841Z,968.92
2018-02-04T01:57:59.830Z,968.95
2018-02-04T01:58:59.874Z,968.94
2018-02-04T01:59:59.978Z,968.98
2018-02-04T02:00:59.822Z,968.99
2018-02-04T02:01:59.808Z,968.98
2018-02-04T02:02:59.905Z,969.02
2018-02-04T02:03:59.838Z,969.01
2018-02-04T02:04:59.790Z,969.04
2018-02-04T02:05:59.780Z,968.98
2018-02-04T02:06:59.781Z,968.99
2018-02-04T02:07:59.776Z,969.03
2018-02-04T02:08:59.803Z,969.00
2018-02-04T02:09:59.763Z,969.00
2018-02-04T02:10:59.755Z,969.03
2018-02-04T02:11:59.755Z,969.02
2018-02-04T02:12:59.743Z,969.03
2018-02-04T02:13:59.775Z,969.06
2018-02-04T02:14:59.733Z,969.03
2018-02-04T02:15:59.728Z,969.06
2018-02-04T02:16:59.720Z,969.01
2018-02-04T02:17:59.711Z,969.02
2018-02-04T02:18:59.749Z,969.06
2018-02-04T02:19:59.717Z,969.07
2018-02-04T02:20:59.691Z,969.06
2018-02-04T02:21:59.686Z,969.06
2018-02-04T02:22:59.684Z,969.07
2018-02-04T02:23:59.720Z,969.07
2018-02-04T02:24:59.715Z,969.10
2018-02-04T02:25:59.662Z,969.11
2018-02-04T02:26:59.654Z,969.12
2018-02-04T02:27:59.653Z,969.13
2018-02-04T02:28:59.641Z,969.11
2018-02-04T02:29:59.686Z,969.16
2018-02-04T02:30:59.652Z,969.17
2018-02-04T02:31:59.634Z,969.18
2018-02-04T02:32:59.623Z,969.17
2018-02-04T02:33:59.628Z,969.19
2018-02-04T02:34:59.653Z,969.23
2018-02-04T02:35:59.607Z,969.23
2018-02-04T02:36:59.599Z,969.26
2018-02-04T02:37:59.588Z,969.26
2018-02-04T02:39:00.509Z,969.31
2018-02-04T02:39:59.622Z,969.34
2018-02-04T02:40:59.569Z,969.28
2018-02-04T02:41:59.569Z,969.34
2018-02-04T02:42:59.555Z,969.34
2018-02-04T02:43:59.556Z,969.35
2018-02-04T02:44:59.591Z,969.37
2018-02-04T02:45:59.546Z,969.36
2018-02-04T02:46:59.534Z,969.38
2018-02-04T02:47:59.553Z,969.42
2018-02-04T02:48:59.522Z,969.40
2018-02-04T02:49:59.563Z,969.43
2018-02-04T02:50:59.514Z,969.42
2018-02-04T02:51:59.507Z,969.48
2018-02-04T02:52:59.780Z,969.50
2018-02-04T02:53:59.489Z,969.49
2018-02-04T02:54:59.532Z,969.54
2018-02-04T02:55:59.478Z,969.57
2018-02-04T02:56:59.473Z,969.56
2018-02-04T02:57:59.468Z,969.57
2018-02-04T02:58:59.461Z,969.60
2018-02-04T02:59:59.497Z,969.63
2018-02-04T03:00:59.453Z,969.65
2018-02-04T03:01:59.443Z,969.65
2018-02-04T03:02:59.796Z,969.65
2018-02-04T03:03:59.474Z,969.63
2018-02-04T03:04:59.424Z,969.63
2018-02-04T03:05:59.420Z,969.67
2018-02-04T03:06:59.411Z,969.74
2018-02-04T03:07:59.409Z,969.74
2018-02-04T03:08:59.440Z,969.77
2018-02-04T03:09:59.393Z,969.76
2018-02-04T03:10:59.439Z,969.75
2018-02-04T03:11:59.386Z,969.78
2018-02-04T03:12:59.377Z,969.82
2018-02-04T03:13:59.417Z,969.83
2018-02-04T03:14:59.366Z,969.85
2018-02-04T03:15:59.364Z,969.88
2018-02-04T03:16:59.389Z,969.91
2018-02-04T03:17:59.346Z,969.89
2018-02-04T03:18:59.336Z,969.89
2018-02-04T03:19:59.334Z,969.95
2018-02-04T03:20:59.326Z,969.98
2018-02-04T03:21:59.365Z,969.91
2018-02-04T03:22:59.317Z,969.93
2018-02-04T03:23:59.355Z,969.98
2018-02-04T03:24:59.301Z,970.02
2018-02-04T03:25:59.300Z,970.00
2018-02-04T03:26:59.332Z,970.04
2018-02-04T03:27:59.285Z,970.02
2018-02-04T03:28:59.280Z,970.01
2018-02-04T03:29:59.277Z,970.05
2018-02-04T03:30:59.279Z,970.05
2018-02-04T03:31:59.300Z,970.07
2018-02-04T03:32:59.266Z,970.06
2018-02-04T03:33:59.248Z,970.06
2018-02-04T03:34:59.245Z,970.09
2018-02-04T03:35:59.238Z,970.12
2018-02-04T03:36:59.276Z,970.13
2018-02-04T03:37:59.226Z,970.17
2018-02-04T03:38:59.221Z,970.20
2018-02-04T03:39:59.263Z,970.21
2018-02-04T03:40:59.214Z,970.20
2018-02-04T03:41:59.245Z,970.22
2018-02-04T03:42:59.198Z,970.24
2018-02-04T03:43:59.188Z,970.27
2018-02-04T03:44:59.183Z,970.27
2018-02-04T03:45:59.177Z,970.31
2018-02-04T03:46:59.214Z,970.33
2018-02-04T03:47:59.205Z,970.32
2018-02-04T03:48:59.157Z,970.30
2018-02-04T03:49:59.153Z,970.33
2018-02-04T03:50:59.151Z,970.31
2018-02-04T03:51:59.182Z,970.28
2018-02-04T03:52:59.132Z,970.30
2018-02-04T03:53:59.132Z,970.34
2018-02-04T03:54:59.121Z,970.35
2018-02-04T03:55:59.158Z,970.35
2018-02-04T03:56:59.164Z,970.34
2018-02-04T03:57:59.116Z,970.35
2018-02-04T03:58:59.778Z,970.38
2018-02-04T03:59:59.094Z,970.34
2018-02-04T04:00:59.090Z,970.36
2018-02-04T04:01:59.121Z,970.38
2018-02-04T04:02:59.073Z,970.41
2018-02-04T04:03:59.067Z,970.44
2018-02-04T04:04:59.058Z,970.44
2018-02-04T04:05:59.056Z,970.46
2018-02-04T04:06:59.090Z,970.44
2018-02-04T04:07:59.040Z,970.46
2018-02-04T04:08:59.036Z,970.45
2018-02-04T04:09:59.587Z,970.39
2018-02-04T04:10:59.022Z,970.44
2018-02-04T04:11:59.059Z,970.44
2018-02-04T04:12:59.011Z,970.46
2018-02-04T04:13:59.006Z,970.47
2018-02-04T04:14:58.998Z,970.44
2018-02-04T04:15:58.994Z,970.47
2018-02-04T04:16:59.026Z,970.50
2018-02-04T04:17:59.027Z,970.47
2018-02-04T04:18:58.970Z,970.50
2018-02-04T04:19:58.968Z,970.50
2018-02-04T04:20:58.968Z,970.54
2018-02-04T04:21:58.996Z,970.60
2018-02-04T04:22:58.956Z,970.55
2018-02-04T04:23:58.987Z,970.58
2018-02-04T04:24:58.938Z,970.59
2018-02-04T04:25:58.939Z,970.61
2018-02-04T04:26:58.922Z,970.68
2018-02-04T04:27:58.917Z,970.68
2018-02-04T04:28:58.980Z,970.65
2018-02-04T04:29:58.916Z,970.66
2018-02-04T04:30:58.941Z,970.67
2018-02-04T04:31:58.893Z,970.66
2018-02-04T04:32:58.890Z,970.64
2018-02-04T04:33:58.885Z,970.69
2018-02-04T04:34:58.920Z,970.70
2018-02-04T04:35:58.868Z,970.71
2018-02-04T04:36:58.866Z,970.69
2018-02-04T04:37:58.857Z,970.77
2018-02-04T04:38:58.853Z,970.73
2018-02-04T04:39:58.888Z,970.78
2018-02-04T04:40:58.836Z,970.76
2018-02-04T04:41:58.829Z,970.79
2018-02-04T04:42:58.826Z,970.80
2018-02-04T04:43:58.822Z,970.77
2018-02-04T04:44:58.857Z,970.81
2018-02-04T04:45:58.808Z,970.80
2018-02-04T04:46:58.802Z,970.81
2018-02-04T04:47:58.793Z,970.82
2018-02-04T04:48:58.786Z,970.83
2018-02-04T04:49:58.827Z,970.82
2018-02-04T04:50:58.818Z,970.82
2018-02-04T04:51:58.768Z,970.86
2018-02-04T04:52:58.781Z,970.85
2018-02-04T04:53:58.758Z,970.86
2018-02-04T04:54:58.753Z,970.88
2018-02-04T04:55:58.791Z,970.93
2018-02-04T04:56:58.739Z,970.91
2018-02-04T04:57:58.739Z,970.94
2018-02-04T04:58:58.725Z,970.91
2018-02-04T04:59:58.723Z,970.92
2018-02-04T05:00:58.752Z,970.90
2018-02-04T05:01:58.709Z,970.94
2018-02-04T05:02:58.702Z,970.94
2018-02-04T05:03:58.702Z,970.94
2018-02-04T05:04:58.690Z,970.98
2018-02-04T05:05:58.734Z,970.99
2018-02-04T05:06:58.678Z,971.02
2018-02-04T05:07:58.673Z,971.07
2018-02-04T05:08:58.668Z,971.07
2018-02-04T05:09:58.662Z,971.09
2018-02-04T05:10:58.708Z,971.08
2018-02-04T05:11:58.649Z,971.09
2018-02-04T05:12:58.642Z,971.10
2018-02-04T05:13:58.638Z,971.09
2018-02-04T05:14:58.640Z,971.13
2018-02-04T05:15:58.668Z,971.12
2018-02-04T05:16:58.619Z,971.09
2018-02-04T05:17:58.611Z,971.12
2018-02-04T05:18:58.611Z,971.09
2018-02-04T05:19:58.606Z,971.10
2018-02-04T05:20:58.639Z,971.12
2018-02-04T05:21:58.586Z,971.13
2018-02-04T05:22:58.585Z,971.14
2018-02-04T05:23:58.577Z,971.13
2018-02-04T05:24:58.571Z,971.13
2018-02-04T05:25:58.603Z,971.10
2018-02-04T05:26:58.559Z,971.14
2018-02-04T05:27:58.555Z,971.14
2018-02-04T05:28:58.545Z,971.17
2018-02-04T05:29:58.539Z,971.16
2018-02-04T05:30:58.579Z,971.19
2018-02-04T05:31:58.528Z,971.17
2018-02-04T05:32:58.524Z,971.16
2018-02-04T05:33:58.517Z,971.22
2018-02-04T05:34:58.508Z,971.21
2018-02-04T05:35:58.553Z,971.25
2018-02-04T05:36:58.496Z,971.27
2018-02-04T05:37:58.488Z,971.28
2018-02-04T05:38:58.486Z,971.27
2018-02-04T05:39:58.524Z,971.30
2018-02-04T05:40:58.474Z,971.34
2018-02-04T05:41:58.464Z,971.32
2018-02-04T05:42:58.461Z,971.37
2018-02-04T05:43:58.456Z,971.39
2018-02-04T05:44:58.488Z,971.44
2018-02-04T05:45:58.453Z,971.44
2018-02-04T05:46:58.477Z,971.44
2018-02-04T05:47:58.437Z,971.49
2018-02-04T05:48:58.424Z,971.49
2018-02-04T05:49:58.419Z,971.47
2018-02-04T05:50:58.412Z,971.48
2018-02-04T05:51:58.452Z,971.51
2018-02-04T05:52:58.401Z,971.51
2018-02-04T05:53:58.392Z,971.51
2018-02-04T05:54:58.431Z,971.55
2018-02-04T05:55:58.383Z,971.59
2018-02-04T05:56:58.380Z,971.61
2018-02-04T05:57:58.411Z,971.64
2018-02-04T05:58:58.363Z,971.66
2018-02-04T05:59:58.358Z,971.68
2018-02-04T06:00:59.335Z,971.68
2018-02-04T06:01:58.348Z,971.70
2018-02-04T06:02:58.382Z,971.73
2018-02-04T06:03:58.337Z,971.75
2018-02-04T06:04:58.333Z,971.73
2018-02-04T06:05:58.323Z,971.79
2018-02-04T06:06:58.319Z,971.82
2018-02-04T06:07:58.350Z,971.84
2018-02-04T06:08:58.307Z,971.83
2018-02-04T06:09:58.302Z,971.85
2018-02-04T06:10:58.296Z,971.86
2018-02-04T06:11:58.292Z,971.86
2018-02-04T06:12:58.327Z,971.86
2018-02-04T06:13:58.329Z,971.89
2018-02-04T06:14:58.308Z,971.93
2018-02-04T06:15:58.263Z,971.91
2018-02-04T06:16:58.259Z,971.93
2018-02-04T06:17:58.260Z,971.95
2018-02-04T06:18:58.293Z,971.97
2018-02-04T06:19:58.288Z,971.99
2018-02-04T06:20:58.237Z,972.06
2018-02-04T06:21:58.241Z,972.07
2018-02-04T06:22:58.230Z,972.08
2018-02-04T06:23:58.702Z,972.08
2018-02-04T06:24:58.252Z,972.11
2018-02-04T06:25:58.213Z,972.12
2018-02-04T06:26:58.200Z,972.15
2018-02-04T06:27:58.195Z,972.19
2018-02-04T06:28:58.188Z,972.21
2018-02-04T06:29:58.218Z,972.19
2018-02-04T06:30:58.181Z,972.22
2018-02-04T06:31:58.169Z,972.23
2018-02-04T06:32:58.166Z,972.25
2018-02-04T06:33:58.160Z,972.26
2018-02-04T06:34:58.195Z,972.28
2018-02-04T06:35:58.150Z,972.30
2018-02-04T06:36:58.142Z,972.32
2018-02-04T06:37:58.137Z,972.32
2018-02-04T06:38:58.137Z,972.36
2018-02-04T06:39:58.171Z,972.36
2018-02-04T06:40:58.465Z,972.36
2018-02-04T06:41:58.112Z,972.41
2018-02-04T06:42:58.124Z,972.41
2018-02-04T06:43:58.102Z,972.45
2018-02-04T06:44:58.143Z,972.44
2018-02-04T06:45:58.096Z,972.47
2018-02-04T06:46:58.654Z,972.48
2018-02-04T06:47:58.084Z,972.53
2018-02-04T06:48:58.079Z,972.56
2018-02-04T06:49:58.113Z,972.57
2018-02-04T06:50:58.063Z,972.62
2018-02-04T06:51:58.056Z,972.60
2018-02-04T06:52:58.054Z,972.67
2018-02-04T06:53:58.044Z,972.65
2018-02-04T06:54:58.082Z,972.66
2018-02-04T06:55:58.036Z,972.67
2018-02-04T06:56:58.027Z,972.68
2018-02-04T06:57:58.027Z,972.72
2018-02-04T06:58:58.015Z,972.74
2018-02-04T06:59:58.048Z,972.76
2018-02-04T07:00:58.006Z,972.77
2018-02-04T07:01:57.999Z,972.82
2018-02-04T07:02:57.992Z,972.85
2018-02-04T07:03:57.990Z,972.89
2018-02-04T07:04:58.026Z,972.92
2018-02-04T07:05:58.257Z,972.93
2018-02-04T07:06:57.971Z,972.93
2018-02-04T07:07:57.966Z,972.94
2018-02-04T07:08:57.961Z,972.97
2018-02-04T07:09:57.997Z,972.99
2018-02-04T07:10:57.949Z,973.01
2018-02-04T07:11:57.943Z,973.00
2018-02-04T07:12:57.937Z,973.06
2018-02-04T07:13:57.937Z,973.05
2018-02-04T07:14:57.971Z,973.10
2018-02-04T07:15:58.340Z,973.08
2018-02-04T07:16:57.915Z,973.10
2018-02-04T07:17:57.908Z,973.14
2018-02-04T07:18:57.978Z,973.12
2018-02-04T07:19:57.969Z,973.19
2018-02-04T07:20:57.945Z,973.17
2018-02-04T07:21:57.886Z,973.19
2018-02-04T07:22:57.878Z,973.20
2018-02-04T07:23:57.981Z,973.23
2018-02-04T07:24:57.913Z,973.23
2018-02-04T07:25:57.860Z,973.25
2018-02-04T07:26:57.855Z,973.29
2018-02-04T07:27:57.851Z,973.35
2018-02-04T07:28:57.844Z,973.35
2018-02-04T07:29:57.884Z,973.38
2018-02-04T07:30:57.834Z,973.39
2018-02-04T07:31:57.825Z,973.45
2018-02-04T07:32:57.824Z,973.44
2018-02-04T07:33:57.881Z,973.49
2018-02-04T07:34:57.855Z,973.51
2018-02-04T07:35:57.808Z,973.53
2018-02-04T07:36:57.828Z,973.55
2018-02-04T07:37:57.793Z,973.54
2018-02-04T07:38:57.800Z,973.57
2018-02-04T07:39:57.822Z,973.59
2018-02-04T07:40:58.545Z,973.62
2018-02-04T07:41:57.774Z,973.67
2018-02-04T07:42:57.946Z,973.64
2018-02-04T07:43:57.813Z,973.68
2018-02-04T07:44:57.797Z,973.70
2018-02-04T07:45:57.763Z,973.76
2018-02-04T07:46:57.744Z,973.77
2018-02-04T07:47:57.787Z,973.74
2018-02-04T07:48:57.855Z,973.75
2018-02-04T07:49:57.775Z,973.81
2018-02-04T07:50:57.755Z,973.84
2018-02-04T07:51:57.724Z,973.86
2018-02-04T07:52:57.715Z,973.88
2018-02-04T07:53:57.744Z,973.89
2018-02-04T07:54:57.718Z,973.90
2018-02-04T07:55:57.725Z,973.94
2018-02-04T07:56:58.881Z,973.94
2018-02-04T07:57:57.733Z,974.00
2018-02-04T07:58:57.684Z,974.04
2018-02-04T07:59:57.764Z,974.06
2018-02-04T08:00:57.669Z,974.07
2018-02-04T08:01:57.697Z,974.10
2018-02-04T08:02:57.703Z,974.11
2018-02-04T08:03:57.776Z,974.12
2018-02-04T08:04:57.654Z,974.18
2018-02-04T08:05:57.640Z,974.19
2018-02-04T08:06:57.651Z,974.23
2018-02-04T08:07:57.629Z,974.23
2018-02-04T08:08:57.679Z,974.29
2018-02-04T08:09:57.623Z,974.29
2018-02-04T08:10:57.623Z,974.32
2018-02-04T08:11:58.168Z,974.34
2018-02-04T08:12:57.604Z,974.37
2018-02-04T08:13:57.639Z,974.41
2018-02-04T08:14:57.590Z,974.42
2018-02-04T08:15:57.586Z,974.45
2018-02-04T08:16:57.583Z,974.46
2018-02-04T08:17:57.576Z,974.47
2018-02-04T08:18:57.611Z,974.47
2018-02-04T08:19:57.556Z,974.53
2018-02-04T08:20:57.552Z,974.52
2018-02-04T08:21:57.546Z,974.52
2018-02-04T08:22:57.540Z,974.55
2018-02-04T08:23:57.571Z,974.55
2018-02-04T08:24:57.529Z,974.56
2018-02-04T08:25:58.154Z,974.56
2018-02-04T08:26:57.517Z,974.57
2018-02-04T08:27:57.510Z,974.60
2018-02-04T08:28:57.548Z,974.64
2018-02-04T08:29:57.507Z,974.62
2018-02-04T08:30:57.550Z,974.62
2018-02-04T08:31:57.488Z,974.61
2018-02-04T08:32:57.486Z,974.64
2018-02-04T08:33:57.539Z,974.64
2018-02-04T08:34:57.517Z,974.66
2018-02-04T08:35:57.478Z,974.69
2018-02-04T08:36:57.463Z,974.74
2018-02-04T08:37:57.472Z,974.70
2018-02-04T08:38:57.452Z,974.74
2018-02-04T08:39:57.496Z,974.75
2018-02-04T08:40:57.445Z,974.72
2018-02-04T08:41:57.440Z,974.72
2018-02-04T08:42:58.152Z,974.80
2018-02-04T08:43:57.430Z,974.82
2018-02-04T08:44:57.463Z,974.79
2018-02-04T08:45:57.422Z,974.85
2018-02-04T08:46:57.419Z,974.84
2018-02-04T08:47:57.413Z,974.88
2018-02-04T08:48:57.408Z,974.90
2018-02-04T08:49:57.441Z,974.93
2018-02-04T08:50:57.396Z,974.96
2018-02-04T08:51:57.396Z,974.99
2018-02-04T08:52:57.387Z,974.99
2018-02-04T08:53:57.384Z,975.04
2018-02-04T08:54:57.432Z,975.03
2018-02-04T08:55:57.373Z,975.09
2018-02-04T08:56:57.369Z,975.07
2018-02-04T08:57:57.374Z,975.10
2018-02-04T08:58:57.358Z,975.11
2018-02-04T08:59:57.401Z,975.12
2018-02-04T09:00:57.349Z,975.18
2018-02-04T09:01:57.344Z,975.18
2018-02-04T09:02:57.344Z,975.20
2018-02-04T09:03:57.336Z,975.21
2018-02-04T09:04:57.374Z,975.25
2018-02-04T09:05:57.321Z,975.24
2018-02-04T09:06:57.319Z,975.28
2018-02-04T09:07:57.313Z,975.30
2018-02-04T09:08:57.314Z,975.30
2018-02-04T09:09:57.352Z,975.30
2018-02-04T09:10:57.303Z,975.34
2018-02-04T09:11:57.296Z,975.35
2018-02-04T09:12:57.293Z,975.35
2018-02-04T09:13:57.322Z,975.38
2018-02-04T09:14:57.346Z,975.37
2018-02-04T09:15:57.280Z,975.41
2018-02-04T09:16:57.273Z,975.40
2018-02-04T09:17:57.272Z,975.42
2018-02-04T09:18:57.272Z,975.50
2018-02-04T09:19:57.298Z,975.47
2018-02-04T09:20:57.255Z,975.51
2018-02-04T09:21:57.248Z,975.52
2018-02-04T09:22:57.243Z,975.55
2018-02-04T09:23:57.242Z,975.56
2018-02-04T09:24:57.279Z,975.54
2018-02-04T09:25:57.230Z,975.55
2018-02-04T09:26:57.241Z,975.55
2018-02-04T09:27:57.222Z,975.62
2018-02-04T09:28:57.276Z,975.59
2018-02-04T09:29:57.218Z,975.65
2018-02-04T09:30:57.214Z,975.66
2018-02-04T09:31:57.200Z,975.66
2018-02-04T09:32:57.202Z,975.67
2018-02-04T09:33:57.200Z,975.67
2018-02-04T09:34:57.231Z,975.72
2018-02-04T09:35:57.192Z,975.71
2018-02-04T09:36:57.186Z,975.73
2018-02-04T09:37:57.187Z,975.73
2018-02-04T09:38:57.178Z,975.75
2018-02-04T09:39:57.225Z,975.74
2018-02-04T09:40:57.177Z,975.76
2018-02-04T09:41:57.173Z,975.80
2018-02-04T09:42:57.174Z,975.81
2018-02-04T09:43:57.168Z,975.84
2018-02-04T09:44:57.202Z,975.86
2018-02-04T09:45:57.156Z,975.88
2018-02-04T09:46:57.157Z,975.90
2018-02-04T09:47:57.147Z,975.87
2018-02-04T09:48:57.150Z,975.87
2018-02-04T09:49:57.180Z,975.87
2018-02-04T09:50:57.137Z,975.89
2018-02-04T09:51:57.577Z,975.90
2018-02-04T09:52:57.131Z,975.94
2018-02-04T09:53:57.135Z,975.95
2018-02-04T09:54:57.164Z,975.95
2018-02-04T09:55:57.128Z,975.96
2018-02-04T09:56:57.124Z,975.96
2018-02-04T09:57:57.124Z,975.99
2018-02-04T09:58:57.238Z,976.02
2018-02-04T09:59:57.155Z,975.98
2018-02-04T10:00:57.121Z,976.03
2018-02-04T10:01:57.106Z,976.06
2018-02-04T10:02:57.119Z,976.04
2018-02-04T10:03:57.103Z,976.05
2018-02-04T10:04:57.361Z,976.08
2018-02-04T10:05:57.117Z,976.04
2018-02-04T10:06:57.093Z,976.08
2018-02-04T10:07:57.089Z,976.12
2018-02-04T10:08:57.091Z,976.10
2018-02-04T10:09:57.142Z,976.10
2018-02-04T10:10:57.081Z,976.14
2018-02-04T10:11:57.080Z,976.14
2018-02-04T10:12:57.085Z,976.15
2018-02-04T10:13:57.079Z,976.15
2018-02-04T10:14:57.117Z,976.14
2018-02-04T10:15:57.106Z,976.14
2018-02-04T10:16:57.084Z,976.18
2018-02-04T10:17:57.070Z,976.14
2018-02-04T10:18:57.068Z,976.20
2018-02-04T10:19:57.109Z,976.17
2018-02-04T10:20:57.069Z,976.19
2018-02-04T10:21:57.053Z,976.23
2018-02-04T10:22:57.053Z,976.19
2018-02-04T10:23:57.053Z,976.22
2018-02-04T10:24:57.080Z,976.26
2018-02-04T10:25:57.042Z,976.28
2018-02-04T10:26:57.049Z,976.32
2018-02-04T10:27:57.030Z,976.29
2018-02-04T10:28:57.029Z,976.31
2018-02-04T10:29:57.066Z,976.34
2018-02-04T10:30:57.030Z,976.38
2018-02-04T10:31:57.010Z,976.38
2018-02-04T10:32:57.022Z,976.40
2018-02-04T10:33:57.019Z,976.42
2018-02-04T10:34:57.044Z,976.37
2018-02-04T10:35:57.052Z,976.43
2018-02-04T10:36:57.668Z,976.44
2018-02-04T10:37:56.996Z,976.48
2018-02-04T10:38:56.993Z,976.49
2018-02-04T10:39:56.993Z,976.48
2018-02-04T10:40:57.033Z,976.52
2018-02-04T10:41:56.977Z,976.50
2018-02-04T10:42:56.970Z,976.54
2018-02-04T10:43:56.977Z,976.55
2018-02-04T10:44:56.981Z,976.51
2018-02-04T10:45:57.002Z,976.57
2018-02-04T10:46:56.969Z,976.58
2018-02-04T10:47:56.949Z,976.57
2018-02-04T10:48:56.952Z,976.61
2018-02-04T10:49:56.942Z,976.60
2018-02-04T10:50:56.986Z,976.64
2018-02-04T10:51:56.931Z,976.64
2018-02-04T10:52:56.943Z,976.70
2018-02-04T10:53:56.936Z,976.67
2018-02-04T10:54:56.933Z,976.65
2018-02-04T10:55:56.958Z,976.66
2018-02-04T10:56:56.907Z,976.67
2018-02-04T10:57:56.917Z,976.72
2018-02-04T10:58:56.918Z,976.70
2018-02-04T10:59:56.948Z,976.71
2018-02-04T11:00:56.908Z,976.71
2018-02-04T11:01:56.946Z,976.69
2018-02-04T11:02:56.882Z,976.71
2018-02-04T11:03:56.893Z,976.69
2018-02-04T11:04:56.885Z,976.73
2018-02-04T11:05:56.895Z,976.71
2018-02-04T11:06:56.920Z,976.76
2018-02-04T11:07:56.869Z,976.77
2018-02-04T11:08:56.870Z,976.76
2018-02-04T11:09:56.851Z,976.76
2018-02-04T11:10:56.856Z,976.77
2018-02-04T11:11:56.900Z,976.80
2018-02-04T11:12:56.851Z,976.78
2018-02-04T11:13:56.848Z,976.78
2018-02-04T11:14:56.841Z,976.80
2018-02-04T11:15:56.829Z,976.78
2018-02-04T11:16:57.017Z,976.83
2018-02-04T11:17:56.835Z,976.82
2018-02-04T11:18:56.812Z,976.87
2018-02-04T11:19:56.865Z,976.88
2018-02-04T11:20:56.807Z,976.86
2018-02-04T11:21:56.824Z,976.93
2018-02-04T11:22:56.841Z,976.92
2018-02-04T11:23:56.795Z,976.95
2018-02-04T11:24:56.803Z,976.97
2018-02-04T11:25:56.781Z,976.96
2018-02-04T11:26:56.784Z,976.99
2018-02-04T11:27:56.826Z,977.03
2018-02-04T11:28:56.777Z,976.99
2018-02-04T11:29:56.798Z,976.98
2018-02-04T11:30:56.755Z,976.97
2018-02-04T11:31:56.764Z,976.96
2018-02-04T11:32:56.797Z,976.97
2018-02-04T11:33:56.750Z,976.96
2018-02-04T11:34:56.748Z,977.00
2018-02-04T11:35:56.734Z,977.02
2018-02-04T11:36:56.739Z,977.04
2018-02-04T11:37:56.780Z,977.06
2018-02-04T11:38:56.732Z,977.05
2018-02-04T11:39:56.764Z,977.08
2018-02-04T11:40:56.716Z,977.10
2018-02-04T11:41:56.709Z,977.08
2018-02-04T11:42:56.705Z,977.08
2018-02-04T11:43:56.741Z,977.09
2018-02-04T11:44:56.746Z,977.10
2018-02-04T11:45:56.687Z,977.08
2018-02-04T11:46:56.684Z,977.10
2018-02-04T11:47:56.667Z,977.09
2018-02-04T11:48:56.675Z,977.14
2018-02-04T11:49:56.708Z,977.12
2018-02-04T11:50:56.664Z,977.15
2018-02-04T11:51:56.655Z,977.16
2018-02-04T11:52:56.667Z,977.14
2018-02-04T11:53:56.691Z,977.16
2018-02-04T11:54:56.636Z,977.15
2018-02-04T11:55:56.638Z,977.21
2018-02-04T11:56:59.277Z,977.22
2018-02-04T11:57:56.628Z,977.25
2018-02-04T11:58:56.660Z,977.22
2018-02-04T11:59:56.675Z,977.21
2018-02-04T12:00:56.605Z,977.28
2018-02-04T12:01:56.620Z,977.28
2018-02-04T12:02:56.604Z,977.27
2018-02-04T12:03:56.600Z,977.32
2018-02-04T12:04:56.636Z,977.31
2018-02-04T12:05:56.588Z,977.34
2018-02-04T12:06:56.593Z,977.34
2018-02-04T12:07:56.579Z,977.37
2018-02-04T12:08:56.614Z,977.38
2018-02-04T12:09:56.568Z,977.40
2018-02-04T12:10:56.566Z,977.37
2018-02-04T12:11:56.559Z,977.39
2018-02-04T12:12:56.552Z,977.43
2018-02-04T12:13:56.590Z,977.37
2018-02-04T12:14:56.543Z,977.40
2018-02-04T12:15:56.535Z,977.39
2018-02-04T12:16:56.533Z,977.45
2018-02-04T12:17:56.525Z,977.41
2018-02-04T12:18:56.564Z,977.43
2018-02-04T12:19:56.523Z,977.45
2018-02-04T12:20:56.513Z,977.43
2018-02-04T12:21:56.508Z,977.45
2018-02-04T12:22:56.506Z,977.45
2018-02-04T12:23:56.542Z,977.48
2018-02-04T12:24:56.493Z,977.47
2018-02-04T12:25:56.489Z,977.46
2018-02-04T12:26:56.484Z,977.48
2018-02-04T12:27:56.482Z,977.50